createdAt,value
2022-10-05T00:03:20.978Z,100414.50
2022-10-05T00:08:25.495Z,100411.75
2022-10-05T00:13:29.651Z,100409.25
2022-10-05T00:18:32.568Z,100401.75
2022-10-05T00:23:34.258Z,100401.59
2022-10-05T00:28:35.823Z,100399.03
2022-10-05T00:33:37.365Z,100402.66
2022-10-05T00:38:40.169Z,100401.22
2022-10-05T00:43:44.606Z,100392.50
2022-10-05T00:49:02.451Z,100395.88
2022-10-05T00:54:28.294Z,100390.59
2022-10-05T00:59:59.790Z,100395.75
2022-10-05T01:05:29.456Z,100410.72
2022-10-05T01:10:42.987Z,100401.78
2022-10-05T01:15:56.960Z,100399.13
2022-10-05T01:21:10.967Z,100391.59
2022-10-05T01:26:49.739Z,100395.69
2022-10-05T01:32:13.404Z,100389.53
2022-10-05T01:37:19.903Z,100378.03
2022-10-05T01:42:24.422Z,100367.72
2022-10-05T01:48:03.969Z,100363.41
2022-10-05T01:53:26.096Z,100374.44
2022-10-05T01:58:35.769Z,100362.28
2022-10-05T02:03:45.463Z,100363.97
2022-10-05T02:08:52.082Z,100365.47
2022-10-05T02:14:11.041Z,100362.28
2022-10-05T02:19:34.196Z,100391.19
2022-10-05T02:24:40.846Z,100380.28
2022-10-05T02:29:48.331Z,100366.75
2022-10-05T02:34:51.195Z,100376.94
2022-10-05T02:40:08.351Z,100380.94
2022-10-05T02:45:13.435Z,100373.44
2022-10-05T02:50:24.423Z,100367.03
2022-10-05T02:55:40.399Z,100356.25
2022-10-05T03:00:54.118Z,100353.97
2022-10-05T03:06:03.450Z,100343.78
2022-10-05T03:11:30.179Z,100345.59
2022-10-05T03:16:36.414Z,100346.53
2022-10-05T03:22:04.986Z,100339.72
2022-10-05T03:27:17.338Z,100333.97
2022-10-05T03:32:45.740Z,100348.75
2022-10-05T03:38:00.571Z,100361.97
2022-10-05T03:43:29.804Z,100350.78
2022-10-05T03:48:47.710Z,100354.38
2022-10-05T03:53:54.657Z,100361.47
2022-10-05T03:59:03.248Z,100367.25
2022-10-05T04:04:11.319Z,100368.63
2022-10-05T04:09:18.897Z,100360.00
2022-10-05T04:14:32.102Z,100366.63
2022-10-05T04:20:11.278Z,100360.88
2022-10-05T04:25:22.633Z,100375.66
2022-10-05T04:30:24.466Z,100363.28
2022-10-05T04:35:41.043Z,100362.56
2022-10-05T04:41:10.301Z,100367.03
2022-10-05T04:46:30.933Z,100378.28
2022-10-05T04:51:57.178Z,100386.97
2022-10-05T04:57:02.314Z,100372.22
2022-10-05T05:02:21.248Z,100385.25
2022-10-05T05:07:29.993Z,100377.22
2022-10-05T05:13:09.501Z,100379.88
2022-10-05T05:18:33.668Z,100383.53
2022-10-05T05:23:41.641Z,100401.13
2022-10-05T05:28:59.339Z,100380.09
2022-10-05T05:34:26.083Z,100393.13
2022-10-05T05:39:33.837Z,100388.66
2022-10-05T05:44:44.465Z,100391.97
2022-10-05T05:50:08.259Z,100400.47
2022-10-05T05:55:12.681Z,100396.59
2022-10-05T06:00:34.254Z,100401.59
2022-10-05T06:05:46.742Z,100406.59
2022-10-05T06:10:53.019Z,100406.34
2022-10-05T06:16:08.846Z,100397.97
2022-10-05T06:21:39.831Z,100402.06
2022-10-05T06:26:44.807Z,100394.13
2022-10-05T06:31:58.921Z,100401.84
2022-10-05T06:37:07.243Z,100388.03
2022-10-05T06:42:46.881Z,100387.81
2022-10-05T06:48:28.778Z,100396.44
2022-10-05T06:54:04.106Z,100386.41
2022-10-05T06:59:20.250Z,100370.31
2022-10-05T07:04:40.680Z,100381.72
2022-10-05T07:10:01.361Z,100378.41
2022-10-05T07:15:15.138Z,100371.38
2022-10-05T07:20:32.293Z,100363.66
2022-10-05T07:25:50.438Z,100364.38
2022-10-05T07:30:53.288Z,100359.69
2022-10-05T07:36:22.861Z,100348.44
2022-10-05T07:41:40.253Z,100357.06
2022-10-05T07:47:00.658Z,100353.38
2022-10-05T07:52:13.105Z,100352.91
2022-10-05T07:57:28.676Z,100344.13
2022-10-05T08:02:42.668Z,100345.94
2022-10-05T08:07:45.823Z,100350.44
2022-10-05T08:13:00.709Z,100349.88
2022-10-05T08:18:14.361Z,100350.28
2022-10-05T08:23:42.445Z,100336.41
2022-10-05T08:28:59.207Z,100329.94
2022-10-05T08:34:10.189Z,100313.19
2022-10-05T08:39:17.095Z,100318.00
2022-10-05T08:44:55.577Z,100311.31
2022-10-05T08:50:19.567Z,100319.22
2022-10-05T08:55:36.852Z,100303.63
2022-10-05T09:00:49.305Z,100312.84
2022-10-05T09:06:01.741Z,100300.22
2022-10-05T09:11:32.340Z,100297.88
2022-10-05T09:16:58.233Z,100287.03
2022-10-05T09:22:25.207Z,100288.84
2022-10-05T09:27:38.305Z,100292.41
2022-10-05T09:33:25.701Z,100286.19
2022-10-05T09:38:35.958Z,100280.94
2022-10-05T09:43:52.548Z,100285.59
2022-10-05T09:48:56.861Z,100271.13
2022-10-05T09:54:29.223Z,100267.56
2022-10-05T09:59:55.462Z,100263.78
2022-10-05T10:05:09.125Z,100257.97
2022-10-05T10:10:16.796Z,100260.81
2022-10-05T10:15:18.202Z,100257.47
2022-10-05T10:20:36.427Z,100253.72
2022-10-05T10:25:46.692Z,100247.22
2022-10-05T10:31:11.901Z,100243.66
2022-10-05T10:36:21.604Z,100240.28
2022-10-05T10:41:51.827Z,100241.31
2022-10-05T10:47:24.319Z,100226.63
2022-10-05T10:52:53.504Z,100233.22
2022-10-05T10:58:16.435Z,100239.81
2022-10-05T11:03:26.922Z,100232.06
2022-10-05T11:09:03.222Z,100227.72
2022-10-05T11:14:21.331Z,100226.03
2022-10-05T11:20:03.016Z,100216.91
2022-10-05T11:25:24.171Z,100221.16
2022-10-05T11:31:07.365Z,100203.53
2022-10-05T11:36:34.148Z,100200.41
2022-10-05T11:41:48.099Z,100203.31
2022-10-05T11:47:04.963Z,100191.63
2022-10-05T11:52:18.696Z,100184.72
2022-10-05T11:57:37.826Z,100185.41
2022-10-05T12:02:52.968Z,100181.97
2022-10-05T12:08:12.969Z,100181.72
2022-10-05T12:13:40.113Z,100176.16
2022-10-05T12:18:48.736Z,100166.81
2022-10-05T12:24:08.456Z,100165.38
2022-10-05T12:29:49.176Z,100163.22
2022-10-05T12:34:50.606Z,100151.03
2022-10-05T12:40:08.102Z,100147.25
2022-10-05T12:45:21.050Z,100149.88
2022-10-05T12:50:31.530Z,100144.09
2022-10-05T12:55:42.979Z,100144.84
2022-10-05T13:00:57.408Z,100149.72
2022-10-05T13:06:09.954Z,100136.41
2022-10-05T13:11:19.019Z,100132.75
2022-10-05T13:16:35.839Z,100126.03
2022-10-05T13:21:46.277Z,100133.94
2022-10-05T13:27:11.266Z,100125.91
2022-10-05T13:32:18.544Z,100131.56
2022-10-05T13:37:28.917Z,100126.03
2022-10-05T13:42:41.699Z,100131.75
2022-10-05T13:48:04.790Z,100125.34
2022-10-05T13:53:35.458Z,100128.22
2022-10-05T13:58:57.609Z,100126.31
2022-10-05T14:04:20.545Z,100117.16
2022-10-05T14:09:25.418Z,100121.00
2022-10-05T14:14:30.585Z,100131.97
2022-10-05T14:19:41.170Z,100121.88
2022-10-05T14:25:13.666Z,100121.22
2022-10-05T14:30:15.110Z,100113.19
2022-10-05T14:35:20.708Z,100121.88
2022-10-05T14:40:28.239Z,100126.81
2022-10-05T14:45:30.144Z,100124.31
2022-10-05T14:50:32.108Z,100121.47
2022-10-05T14:55:51.421Z,100116.34
2022-10-05T15:01:00.169Z,100128.38
2022-10-05T15:06:02.349Z,100115.88
2022-10-05T15:11:07.489Z,100114.56
2022-10-05T15:16:19.975Z,100121.53
2022-10-05T15:21:46.064Z,100119.84
2022-10-05T15:26:56.946Z,100121.84
2022-10-05T15:32:03.672Z,100119.84
2022-10-05T15:37:24.481Z,100112.84
2022-10-05T15:42:41.523Z,100109.91
2022-10-05T15:47:47.946Z,100115.97
2022-10-05T15:53:08.278Z,100112.91
2022-10-05T15:58:39.578Z,100114.81
2022-10-05T16:03:51.170Z,100115.22
2022-10-05T16:22:18.391Z,100113.53
2022-10-05T16:28:22.386Z,100117.28
2022-10-05T17:09:14.460Z,100146.41
2022-10-05T17:14:39.611Z,100150.91
2022-10-05T17:20:16.124Z,100145.81
2022-10-05T17:25:37.436Z,100145.53
2022-10-05T17:31:18.070Z,100147.25
2022-10-05T17:36:22.115Z,100139.59
2022-10-05T17:41:29.437Z,100136.91
2022-10-05T17:46:46.041Z,100135.69
2022-10-05T17:52:06.322Z,100140.00
2022-10-05T17:57:07.822Z,100135.19
2022-10-05T18:02:22.409Z,100144.09
2022-10-05T18:07:25.453Z,100145.75
2022-10-05T18:12:40.386Z,100147.72
2022-10-05T18:17:59.534Z,100138.88
2022-10-05T18:23:01.149Z,100155.19
2022-10-05T18:28:54.859Z,100147.06
2022-10-05T18:34:13.217Z,100154.91
2022-10-05T18:39:35.528Z,100157.88
2022-10-05T18:44:58.524Z,100161.13
2022-10-05T18:50:08.768Z,100155.00
2022-10-05T18:55:21.011Z,100161.78
2022-10-05T19:00:24.312Z,100170.19
2022-10-05T19:05:46.949Z,100173.00
2022-10-05T19:11:23.123Z,100176.50
2022-10-05T19:17:03.223Z,100178.78
2022-10-05T19:22:25.113Z,100172.97
2022-10-05T19:27:26.740Z,100178.88
2022-10-05T19:32:52.887Z,100184.56
2022-10-05T19:38:06.445Z,100193.66
2022-10-05T19:43:11.608Z,100195.38
2022-10-05T19:48:32.040Z,100211.34
2022-10-05T19:53:38.816Z,100206.03
2022-10-05T19:58:40.311Z,100214.47
2022-10-05T20:03:47.397Z,100219.34
2022-10-05T20:08:51.965Z,100210.66
2022-10-05T20:13:53.463Z,100217.50
2022-10-05T20:19:13.525Z,100216.94
2022-10-05T20:24:29.429Z,100231.66
2022-10-05T20:29:39.205Z,100237.22
2022-10-05T20:34:42.872Z,100240.34
2022-10-05T20:39:44.833Z,100247.31
2022-10-05T20:44:46.860Z,100254.31
2022-10-05T20:49:48.681Z,100257.25
2022-10-05T20:54:53.967Z,100263.69
2022-10-05T20:59:55.739Z,100265.34
2022-10-05T21:04:57.288Z,100275.66
2022-10-05T21:09:59.069Z,100272.31
2022-10-05T21:15:01.682Z,100277.44
2022-10-05T21:20:03.545Z,100276.78
2022-10-05T21:25:08.799Z,100269.75
2022-10-05T21:30:10.708Z,100268.44
2022-10-05T21:35:12.253Z,100277.78
2022-10-05T21:40:13.993Z,100265.56
2022-10-05T21:45:15.640Z,100266.16
2022-10-05T21:50:17.487Z,100264.22
2022-10-05T21:55:20.246Z,100254.88
2022-10-05T22:00:21.835Z,100245.94
2022-10-05T22:05:23.494Z,100250.84
2022-10-05T22:10:25.181Z,100258.03
2022-10-05T22:15:28.340Z,100272.06
2022-10-05T22:20:30.222Z,100287.53
2022-10-05T22:25:34.055Z,100281.66
2022-10-05T22:30:36.498Z,100284.97
2022-10-05T22:35:38.798Z,100285.00
2022-10-05T22:40:40.377Z,100285.84
2022-10-05T22:45:42.507Z,100298.47
2022-10-05T22:50:45.487Z,100307.66
2022-10-05T22:55:47.008Z,100304.91
2022-10-05T23:00:57.903Z,100313.06
2022-10-05T23:06:03.579Z,100319.66
2022-10-05T23:11:06.250Z,100329.63
2022-10-05T23:16:13.725Z,100342.22
2022-10-05T23:21:15.464Z,100344.28
2022-10-05T23:26:22.251Z,100361.34
2022-10-05T23:31:26.317Z,100381.25
2022-10-05T23:36:32.211Z,100374.47
2022-10-05T23:41:34.450Z,100386.22
2022-10-05T23:46:36.044Z,100391.28
2022-10-05T23:51:37.597Z,100399.25
2022-10-05T23:56:39.152Z,100415.69
